Flight Track Log - Related Links

Times and Time Zones

All times are in EDT time to prevent confusion due to time zone crossing. See the UAL4457 flight status page for this flight to view local times or setup timezone preferences in your user account.

Time Position Orientation Groundspeed Altitude Reporting Facility
EDT Latitude Longitude Course Direction KTS MPH feet Rate Location/Type
Mon 05:45:35 PM 37.9331 -84.7642 243° Southwest 221 254 6,500  Level Indianapolis Center
Mon 05:46:36 PM 37.9025 -84.8428 244° Southwest 245 282 8,400 1,756 Climbing Indianapolis Center
Mon 05:47:38 PM 37.8686 -84.9250 242° Southwest 258 297 10,100 1,306 Climbing Indianapolis Center
Mon 05:48:40 PM 37.8344 -85.0131 244° Southwest 274 315 11,100 976 Climbing Indianapolis Center
Mon 05:49:00 PM 37.7368 -85.3381 241° Southwest  Level FlightAware Approximate
Mon 05:49:41 PM 37.7956 -85.1131 244° Southwest 312 359 12,100  Level Indianapolis Center
Mon 05:50:43 PM 37.7472 -85.2367 244° Southwest 333 383 13,200 1,024 Climbing Indianapolis Center
Mon 05:51:44 PM 37.7036 -85.3456 243° Southwest 343 395 14,200 927 Climbing Indianapolis Center
Mon 05:52:46 PM 37.6592 -85.4589 244° Southwest 355 409 15,100 919 Climbing Indianapolis Center
Mon 05:53:48 PM 37.6108 -85.5739 242° Southwest 366 421 16,100 976 Climbing Indianapolis Center
Mon 05:54:49 PM 37.5650 -85.6903 244° Southwest 367 422 17,100 927 Climbing Indianapolis Center
Mon 05:55:51 PM 37.5178 -85.8072 243° Southwest 372 428 18,000 919 Climbing Indianapolis Center
Mon 05:56:53 PM 37.4675 -85.9328 243° Southwest 378 435 19,000 976 Climbing Indianapolis Center
Mon 05:57:54 PM 37.4189 -86.0508 243° Southwest 378 435 20,000 976 Climbing Indianapolis Center
Mon 05:58:56 PM 37.3703 -86.1703 243° Southwest 381 438 21,000 927 Climbing Indianapolis Center
Mon 05:59:57 PM 37.3208 -86.2908 243° Southwest 384 442 21,900 927 Climbing Indianapolis Center
Mon 06:00:59 PM 37.2714 -86.4119 243° Southwest 387 445 22,900 919 Climbing Indianapolis Center
Mon 06:02:01 PM 37.2208 -86.5336 242° Southwest 390 449 23,800 976 Climbing Indianapolis Center
Mon 06:03:02 PM 37.1622 -86.6764 243° Southwest 392 451 24,900 1,024 Climbing Indianapolis Center
Mon 06:04:04 PM 37.1108 -86.7978 242° Southwest 393 452 25,900 919 Climbing Indianapolis Center
Mon 06:05:06 PM 37.0600 -86.9194 242° Southwest 393 452 26,800 919 Climbing Indianapolis Center
Mon 06:06:08 PM 37.0086 -87.0500 244° Southwest 393 452 27,800 934 Climbing Memphis Center
Mon 06:07:08 PM 36.9556 -87.1689 241° Southwest 399 459 28,700 950 Climbing Memphis Center
Mon 06:08:08 PM 36.9083 -87.2850 243° Southwest 394 453 29,700 1,100 Climbing Memphis Center
Mon 06:09:08 PM 36.8592 -87.4061 243° Southwest 388 447 30,900 1,150 Climbing Memphis Center
Mon 06:10:08 PM 36.8097 -87.5194 241° Southwest 388 447 32,000 1,140 Climbing Memphis Center
Mon 06:11:09 PM 36.7603 -87.6375 242° Southwest 388 447 33,200 1,150 Climbing Memphis Center
Mon 06:12:08 PM 36.7086 -87.7533 241° Southwest 388 447 34,300 1,059 Climbing Memphis Center
Mon 06:13:08 PM 36.6631 -87.8658 243° Southwest 380 437 35,300 850 Climbing Memphis Center
Mon 06:14:08 PM 36.6131 -87.9786 241° Southwest 380 437 36,000 350 Climbing Memphis Center
Mon 06:15:08 PM 36.5611 -88.0939 241° Southwest 380 437 36,000  Level Memphis Center
Mon 06:16:08 PM 36.5172 -88.2036 244° Southwest 385 443 36,000  Level Memphis Center
Mon 06:17:08 PM 36.4631 -88.3264 241° Southwest 396 456 36,000  Level Memphis Center
Mon 06:18:08 PM 36.4067 -88.4514 241° Southwest 414 476 36,000  Level Memphis Center
Mon 06:19:08 PM 36.3500 -88.5817 242° Southwest 425 489 36,000  Level Memphis Center
Mon 06:20:08 PM 36.2936 -88.7064 241° Southwest 425 489 36,000  Level Memphis Center
Mon 06:21:08 PM 36.2389 -88.8283 241° Southwest 420 483 36,000  Level Memphis Center
Mon 06:22:08 PM 36.1819 -88.9506 240° Southwest 420 483 36,000  Level Memphis Center
Mon 06:23:08 PM 36.1269 -89.0747 241° Southwest 420 483 36,000  Level Memphis Center
Mon 06:24:08 PM 36.0719 -89.1964 241° Southwest 420 483 36,000  Level Memphis Center
Mon 06:25:08 PM 36.0106 -89.3306 241° Southwest 420 483 36,000  Level Memphis Center
Mon 06:26:08 PM 35.9550 -89.4519 241° Southwest 420 483 36,000  Level Memphis Center
Mon 06:27:08 PM 35.9039 -89.5703 242° Southwest 413 475 36,000  Level Memphis Center
Mon 06:28:08 PM 35.8481 -89.6911 240° Southwest 408 470 36,000  Level Memphis Center
Mon 06:29:08 PM 35.7944 -89.8094 241° Southwest 403 464 36,000  Level Memphis Center
Mon 06:30:08 PM 35.7408 -89.9272 241° Southwest 398 458 36,000  Level Memphis Center
Mon 06:31:08 PM 35.6972 -90.0197 240° Southwest 398 458 36,000  Level Memphis Center
Mon 06:32:08 PM 35.6392 -90.1603 243° Southwest 392 451 36,000  Level Memphis Center
Mon 06:33:08 PM 35.5831 -90.2831 241° Southwest 397 457 36,000  Level Memphis Center
Mon 06:34:08 PM 35.5289 -90.4031 241° Southwest 397 457 36,000  Level Memphis Center
Mon 06:35:08 PM 35.4703 -90.5228 239° Southwest 407 468 36,000  Level Memphis Center
Mon 06:36:08 PM 35.4139 -90.6500 241° Southwest 414 476 36,000  Level Memphis Center
Mon 06:37:08 PM 35.3572 -90.7694 240° Southwest 419 482 36,000  Level Memphis Center
Mon 06:38:08 PM 35.2983 -90.8861 238° Southwest 409 471 36,000  Level Memphis Center
Mon 06:39:08 PM 35.2456 -91.0053 242° Southwest 400 460 36,000  Level Memphis Center
Mon 06:40:08 PM 35.1764 -91.0836 223° Southwest 392 451 36,000  Level Memphis Center
Mon 06:41:08 PM 35.0778 -91.1589 212° Southwest 397 457 36,000  Level Memphis Center
Mon 06:42:08 PM 34.9814 -91.2339 213° Southwest 419 482 36,000  Level Memphis Center
Mon 06:43:08 PM 34.8786 -91.3114 212° Southwest 432 497 36,000  Level Memphis Center
Mon 06:44:08 PM 34.7778 -91.3861 211° Southwest 431 496 36,000  Level Memphis Center
Mon 06:45:08 PM 34.6811 -91.4583 212° Southwest 419 482 36,000  Level Memphis Center
Mon 06:46:08 PM 34.5908 -91.5303 213° Southwest 406 467 36,000  Level Memphis Center
Mon 06:47:08 PM 34.4900 -91.6069 212° Southwest 415 478 36,000  Level Memphis Center
Mon 06:48:08 PM 34.3806 -91.6883 212° Southwest 415 478 36,000  Level Memphis Center
Mon 06:49:08 PM 34.2903 -91.7550 211° Southwest 425 489 36,000  Level Memphis Center
Mon 06:50:08 PM 34.1892 -91.8286 211° Southwest 425 489 36,000  Level Memphis Center
Mon 06:51:08 PM 34.0903 -91.9047 213° Southwest 430 495 36,000  Level Memphis Center
Mon 06:52:08 PM 33.9911 -91.9856 214° Southwest 435 501 36,000  Level Memphis Center
Mon 06:53:09 PM 33.8858 -92.0586 210° Southwest 435 501 36,000  Level Memphis Center
Mon 06:54:21 PM 33.7625 -92.1494 211° Southwest 428 493 36,000  Level Fort Worth Center
Mon 06:55:21 PM 33.6614 -92.2256 212° Southwest 434 499 36,000  Level Fort Worth Center
Mon 06:56:20 PM 33.5581 -92.3014 211° Southwest 434 499 36,000  Level Fort Worth Center
Mon 06:57:21 PM 33.4586 -92.3744 212° Southwest 434 499 36,000  Level Fort Worth Center
Mon 06:58:20 PM 33.3481 -92.4278 202° Southwest 434 499 36,000  Level Fort Worth Center
Mon 06:59:20 PM 33.2281 -92.4494 189° South 434 499 36,000  Level Fort Worth Center
Mon 07:00:20 PM 33.1100 -92.4711 189° South 439 505 36,000  Level Fort Worth Center
Mon 07:01:20 PM 32.9792 -92.4931 188° South 439 505 36,000  Level Fort Worth Center
Mon 07:02:20 PM 32.8589 -92.5119 188° South 439 505 36,000  Level Fort Worth Center
Mon 07:04:43 PM 32.5961 -92.5656 190° South 432 497 36,000  Level Houston Center
Mon 07:05:45 PM 32.4525 -92.5900 188° South 434 499 36,000  Level Houston Center
Mon 07:06:47 PM 32.3331 -92.6114 189° South 436 502 36,000  Level Houston Center
Mon 07:07:49 PM 32.2125 -92.6328 189° South 438 504 36,000  Level Houston Center
Mon 07:08:51 PM 32.0911 -92.6564 189° South 442 509 36,000  Level Houston Center
Mon 07:09:53 PM 31.9703 -92.6831 191° South 443 510 36,000  Level Houston Center
Mon 07:10:55 PM 31.8622 -92.7847 219° Southwest 416 479 36,000  Level Houston Center
Mon 07:11:58 PM 31.7719 -92.8744 220° Southwest 422 486 36,000  Level Houston Center
Mon 07:13:00 PM 31.6819 -92.9606 219° Southwest 420 483 36,000  Level Houston Center
Mon 07:14:02 PM 31.5917 -93.0469 219° Southwest 419 482 36,000  Level Houston Center
Mon 07:15:04 PM 31.5047 -93.1308 219° Southwest 413 475 36,000  Level Houston Center
Mon 07:16:06 PM 31.4189 -93.2117 219° Southwest 400 460 36,000 -194 Level Houston Center
Mon 07:17:08 PM 31.3125 -93.3144 220° Southwest 405 466 35,600 -1,210 Descending Houston Center
Mon 07:18:10 PM 31.2258 -93.3967 219° Southwest 409 471 33,500 -1,935 Descending Houston Center
Mon 07:19:12 PM 31.1361 -93.4803 219° Southwest 412 474 31,600 -1,887 Descending Houston Center
Mon 07:20:14 PM 31.0447 -93.5675 219° Southwest 424 488 29,600 -1,935 Descending Houston Center
Mon 07:21:16 PM 30.9522 -93.6550 219° Southwest 430 495 27,600 -2,129 Descending Houston Center
Mon 07:22:18 PM 30.8422 -93.7583 219° Southwest 425 489 25,200 -1,935 Descending Houston Center
Mon 07:23:20 PM 30.7569 -93.8403 220° Southwest 406 467 23,600 -1,597 Descending Houston Center
Mon 07:24:22 PM 30.6728 -93.9200 219° Southwest 395 455 21,900 -1,597 Descending Houston Center
Mon 07:25:24 PM 30.5911 -93.9964 219° Southwest 383 441 20,300 -1,667 Descending Houston Center
Mon 07:26:10 PM 30.5192 -94.0625 218° Southwest 371 427 18,900 -1,548 Descending Houston Center
Mon 07:26:26 PM 30.5106 -94.0700 217° Southwest 374 430 18,700 -1,814 Descending Houston Center
Mon 07:26:53 PM 30.4614 -94.1164 219° Southwest 366 421 17,600 -1,869 Descending Houston Center
Mon 07:27:27 PM 30.4319 -94.1442 219° Southwest 368 423 16,800 -2,066 Descending Houston Center
Mon 07:27:54 PM 30.3789 -94.1928 218° Southwest 368 423 15,500 -2,419 Descending Houston Center
Mon 07:28:29 PM 30.3386 -94.2317 220° Southwest 359 413 14,300 -1,967 Descending Houston Center
Mon 07:28:55 PM 30.3058 -94.2631 220° Southwest 351 404 13,500 -1,935 Descending Houston Center
Mon 07:29:31 PM 30.2644 -94.3000 218° Southwest 346 398 12,300 -1,452 Descending Houston Center
Mon 07:29:57 PM 30.2308 -94.3311 219° Southwest 322 371 12,000 -1,065 Descending Houston Center
Mon 07:30:33 PM 30.2011 -94.3667 226° Southwest 318 366 11,200 -1,672 Descending Houston Center
Mon 07:30:58 PM 30.1883 -94.4117 252° West 290 334 10,300 -1,742 Descending Houston Center
Mon 07:31:35 PM 30.1819 -94.4556 260° West 289 333 9,400 -1,574 Descending Houston Center
Mon 07:31:59 PM 30.1722 -94.5058 257° West 285 328 8,700 -1,258 Descending Houston Center
Mon 07:32:37 PM 30.1656 -94.5575 262° West 285 328 8,100 -984 Descending Houston Center
Mon 07:33:00 PM 30.1575 -94.5922 255° West 280 322 7,700 -1,065 Descending Houston Center
Mon 07:33:39 PM 30.1506 -94.6447 261° West 280 322 7,000 -1,082 Descending Houston Center
Mon 07:34:01 PM 30.1431 -94.6811 257° West 274 315 6,600 -871 Descending Houston Center
Mon 07:34:41 PM 30.1364 -94.7297 261° West 274 315 6,100 -590 Descending Houston Center
Mon 07:35:02 PM 30.1281 -94.7653 255° West 261 300 6,000 -98 Descending Houston Center
Mon 07:35:42 PM 30.1200 -94.8139 259° West 266 306 6,000  Level Houston Center
Mon 07:36:03 PM 30.1131 -94.8494 257° West 266 306 6,000  Level Houston Center
Mon 07:36:44 PM 30.1067 -94.8956 261° West 266 306 6,000  Level Houston Center
Mon 07:37:04 PM 30.1044 -94.9375 267° West 271 312 6,000  Level Houston Center
Mon 07:37:46 PM 30.1056 -94.9811 272° West 267 307 6,000  Level Houston Center
Mon 07:38:05 PM 30.1044 -95.0267 268° West 273 314 6,000  Level Houston Center
Mon 07:38:48 PM 30.1058 -95.0861 272° West 274 315 6,000  Level Houston Center
Mon 07:39:06 PM 30.1064 -95.1136 271° West 271 312 6,000  Level Houston Center
Mon 07:39:50 PM 30.1064 -95.1717 270° West 270 311 6,000  Level Houston Center
Mon 07:40:07 PM 30.1061 -95.2006 269° West 273 314 6,000  Level Houston Center
Mon 07:40:51 PM 30.1069 -95.2594 271° West 273 314 6,000  Level Houston Center
Mon 07:41:09 PM 30.1064 -95.2947 269° West 274 315 6,000  Level Houston Center
Mon 07:41:53 PM 30.1069 -95.3464 271° West 273 314 6,000  Level Houston Center
Mon 07:42:10 PM 30.1058 -95.3817 268° West 273 314 6,000 -97 Level Houston Center
Mon 07:42:55 PM 30.1056 -95.4331 270° West 274 315 5,900 -492 Descending Houston Center
Mon 07:43:11 PM 30.0989 -95.4669 257° West 256 295 5,500 -968 Descending Houston Center
Mon 07:43:57 PM 30.0919 -95.5144 260° West 263 303 4,900 -984 Descending Houston Center
Mon 07:44:12 PM 30.0872 -95.5481 261° West 240 276 4,500 -871 Descending Houston Center
Mon 07:44:59 PM 30.0789 -95.5997 259° West 236 272 4,000 -606 Descending Houston Center
Mon 07:46:01 PM 30.0308 -95.6142 195° South 202 232 3,400 -484 Descending Houston Center
Mon 07:47:03 PM 29.9989 -95.5722 131° Southeast 187 215 3,000 -293 Descending Houston Center
Mon 07:48:04 PM 29.9931 -95.5200 97° East 172 198 2,800 -197 Descending Houston Center

Login

Don't have an account? Register now (free) for customized features, flight alerts, and more!